Time;durP1;ratioP1;P1;durP2;ratioP2;P2;SDS_P1;SDS_P2;PMS_P1;PMS_P2;Temp;Humidity;BMP_temperature;BMP_pressure;BME280_temperature;BME280_humidity;BME280_pressure;Samples;Min_cycle;Max_cycle;Signal;HPM_P1;HPM_P2
2022/09/02 00:00:35;;;;;;;11.03;4.20;;;;;;;;;;4890172;29;20721;-41
2022/09/02 00:03:02;;;;;;;7.07;3.70;;;;;;;;;;4892595;29;20200;-42
2022/09/02 00:05:28;;;;;;;7.17;3.70;;;;;;;;;;4890081;29;20277;-41
2022/09/02 00:07:54;;;;;;;8.60;4.03;;;;;;;;;;4893202;29;20176;-42
2022/09/02 00:10:20;;;;;;;6.83;3.87;;;;;;;;;;4891792;29;20275;-40
2022/09/02 00:12:47;;;;;;;6.70;3.80;;;;;;;;;;4893788;29;20188;-41
2022/09/02 00:15:13;;;;;;;5.97;4.00;;;;;;;;;;4889611;29;20208;-42
2022/09/02 00:17:39;;;;;;;10.07;3.83;;;;;;;;;;4891888;29;21367;-40
2022/09/02 00:20:05;;;;;;;5.67;3.83;;;;;;;;;;4889064;28;20915;-42
2022/09/02 00:22:31;;;;;;;9.10;4.00;;;;;;;;;;4888387;29;20517;-42
2022/09/02 00:24:57;;;;;;;8.40;4.27;;;;;;;;;;4888459;29;20459;-41
2022/09/02 00:27:24;;;;;;;10.60;4.50;;;;;;;;;;4891119;29;20212;-41
2022/09/02 00:29:50;;;;;;;5.70;3.97;;;;;;;;;;4891414;29;20513;-41
2022/09/02 00:32:16;;;;;;;6.73;4.27;;;;;;;;;;4888132;29;20188;-42
2022/09/02 00:34:42;;;;;;;8.10;4.47;;;;;;;;;;4889026;29;20573;-40
2022/09/02 00:37:08;;;;;;;7.67;4.23;;;;;;;;;;4891889;29;20173;-42
2022/09/02 00:39:34;;;;;;;6.90;4.40;;;;;;;;;;4893249;29;20547;-42
2022/09/02 00:42:00;;;;;;;4.80;3.97;;;;;;;;;;4891188;29;20684;-42
2022/09/02 00:44:27;;;;;;;7.10;4.17;;;;;;;;;;4887710;29;20211;-43
2022/09/02 00:46:53;;;;;;;6.37;4.47;;;;;;;;;;4885976;29;20610;-42
2022/09/02 00:49:27;;;;;;;9.03;4.77;;;;;;;;;;4886780;29;20848;-43
2022/09/02 00:52:02;;;;;;;7.67;5.43;;;;;;;;;;4885161;29;20602;-43
2022/09/02 00:54:30;;;;;;;8.23;5.33;;;;;;;;;;4890136;29;20573;-41
2022/09/02 00:56:56;;;;;;;6.80;4.97;;;;;;;;;;4887711;29;20515;-42
2022/09/02 00:59:42;;;;;;;9.43;5.30;;;;;;;;;;4884997;29;20442;-43
2022/09/02 01:02:08;;;;;;;7.67;5.37;;;;;;;;;;4883083;29;20289;-43
2022/09/02 01:04:35;;;;;;;6.93;5.10;;;;;;;;;;4891228;28;20299;-43
2022/09/02 01:07:02;;;;;;;8.03;5.07;;;;;;;;;;4890803;29;20619;-40
2022/09/02 01:09:31;;;;;;;8.83;5.37;;;;;;;;;;4888747;29;20526;-43
2022/09/02 01:11:57;;;;;;;6.80;4.60;;;;;;;;;;4891408;29;20192;-42
2022/09/02 01:14:23;;;;;;;5.60;4.93;;;;;;;;;;4886157;29;20652;-43
2022/09/02 01:16:51;;;;;;;6.23;4.93;;;;;;;;;;4882267;29;20211;-43
2022/09/02 01:19:29;;;;;;;7.27;5.20;;;;;;;;;;4879872;29;20932;-43
2022/09/02 01:21:56;;;;;;;7.50;4.50;;;;;;;;;;4879974;29;20438;-42
2022/09/02 01:24:24;;;;;;;9.23;5.43;;;;;;;;;;4879411;28;20196;-43
2022/09/02 01:26:55;;;;;;;7.90;4.90;;;;;;;;;;4880227;29;20843;-43
2022/09/02 01:29:21;;;;;;;12.57;6.47;;;;;;;;;;4879218;29;20427;-43
2022/09/02 01:31:48;;;;;;;8.77;5.63;;;;;;;;;;4879589;29;20238;-43
2022/09/02 01:34:14;;;;;;;12.93;6.87;;;;;;;;;;4879583;29;21016;-43
2022/09/02 01:36:41;;;;;;;10.77;6.50;;;;;;;;;;4878196;29;20184;-42
2022/09/02 01:39:08;;;;;;;10.67;6.70;;;;;;;;;;4883013;29;20961;-43
2022/09/02 01:41:35;;;;;;;10.40;7.13;;;;;;;;;;4878941;29;20191;-43
2022/09/02 01:44:01;;;;;;;12.90;7.37;;;;;;;;;;4883480;29;20188;-43
2022/09/02 01:46:27;;;;;;;9.80;6.73;;;;;;;;;;4886698;29;20696;-43
2022/09/02 01:48:53;;;;;;;9.60;7.33;;;;;;;;;;4891102;29;20346;-42
2022/09/02 01:51:20;;;;;;;11.70;8.87;;;;;;;;;;4886278;29;20768;-43
2022/09/02 01:53:47;;;;;;;13.37;10.27;;;;;;;;;;4889946;29;20168;-42
2022/09/02 01:56:14;;;;;;;14.23;10.37;;;;;;;;;;4887493;29;20303;-43
2022/09/02 01:58:40;;;;;;;13.90;9.17;;;;;;;;;;4890872;29;20442;-43
2022/09/02 02:01:06;;;;;;;11.93;8.63;;;;;;;;;;4890594;29;20218;-43
2022/09/02 02:03:34;;;;;;;15.77;10.40;;;;;;;;;;4885393;29;20184;-43
2022/09/02 02:06:00;;;;;;;15.90;10.10;;;;;;;;;;4886114;29;20354;-42
2022/09/02 02:08:27;;;;;;;14.87;10.37;;;;;;;;;;4889232;29;21348;-43
2022/09/02 02:10:53;;;;;;;14.23;9.97;;;;;;;;;;4892650;29;20184;-43
2022/09/02 02:13:19;;;;;;;11.57;9.10;;;;;;;;;;4891434;29;20196;-43
2022/09/02 02:15:45;;;;;;;15.70;10.17;;;;;;;;;;4888564;29;20263;-43
2022/09/02 02:18:11;;;;;;;16.40;11.90;;;;;;;;;;4888426;29;20463;-43
2022/09/02 02:20:38;;;;;;;10.67;7.90;;;;;;;;;;4888355;29;20176;-43
2022/09/02 02:23:05;;;;;;;12.97;10.03;;;;;;;;;;4888773;29;20522;-43
2022/09/02 02:25:31;;;;;;;14.23;9.37;;;;;;;;;;4889446;29;20447;-43
2022/09/02 02:27:57;;;;;;;15.17;9.93;;;;;;;;;;4890704;29;20512;-42
2022/09/02 02:30:24;;;;;;;14.33;9.53;;;;;;;;;;4891411;29;20661;-43
2022/09/02 02:32:50;;;;;;;13.57;9.63;;;;;;;;;;4890924;29;20208;-42
2022/09/02 02:35:18;;;;;;;14.07;9.57;;;;;;;;;;4885982;29;20322;-43
2022/09/02 02:37:47;;;;;;;11.47;8.73;;;;;;;;;;4885655;29;20270;-43
2022/09/02 02:40:14;;;;;;;12.90;10.07;;;;;;;;;;4885619;29;20180;-43
2022/09/02 02:42:40;;;;;;;18.37;10.77;;;;;;;;;;4884291;29;20203;-43
2022/09/02 02:45:08;;;;;;;15.73;11.10;;;;;;;;;;4884752;29;20725;-42
2022/09/02 02:47:39;;;;;;;14.90;9.50;;;;;;;;;;4885055;29;20784;-42
2022/09/02 02:50:06;;;;;;;13.03;9.87;;;;;;;;;;4887055;29;20610;-43
2022/09/02 02:52:32;;;;;;;14.47;8.53;;;;;;;;;;4886187;28;20196;-43
2022/09/02 02:54:58;;;;;;;12.80;8.23;;;;;;;;;;4886291;29;20672;-42
2022/09/02 02:57:24;;;;;;;14.70;8.10;;;;;;;;;;4883840;29;20322;-42
2022/09/02 02:59:51;;;;;;;9.77;7.13;;;;;;;;;;4883673;29;20179;-43
2022/09/02 03:02:17;;;;;;;13.80;7.63;;;;;;;;;;4886824;29;20462;-43
2022/09/02 03:04:43;;;;;;;12.73;7.17;;;;;;;;;;4883204;29;20205;-43
2022/09/02 03:07:09;;;;;;;9.17;7.03;;;;;;;;;;4883997;29;20263;-43
2022/09/02 03:09:35;;;;;;;10.70;6.63;;;;;;;;;;4881645;29;20779;-43
2022/09/02 03:12:02;;;;;;;10.63;7.00;;;;;;;;;;4884807;29;20187;-42
2022/09/02 03:14:28;;;;;;;11.70;6.53;;;;;;;;;;4884386;29;20547;-41
2022/09/02 03:16:54;;;;;;;10.30;6.43;;;;;;;;;;4883306;29;21076;-43
2022/09/02 03:19:20;;;;;;;11.80;7.30;;;;;;;;;;4880122;29;20255;-43
2022/09/02 03:21:46;;;;;;;9.50;6.53;;;;;;;;;;4893378;28;21349;-42
2022/09/02 03:24:12;;;;;;;9.90;7.30;;;;;;;;;;4884938;28;20224;-42
2022/09/02 03:26:40;;;;;;;10.57;7.37;;;;;;;;;;4886657;29;22356;-42
2022/09/02 03:29:06;;;;;;;10.63;7.63;;;;;;;;;;4888602;29;20741;-42
2022/09/02 03:31:32;;;;;;;9.93;5.90;;;;;;;;;;4897074;28;20255;-42
2022/09/02 03:33:59;;;;;;;10.07;6.60;;;;;;;;;;4885599;29;20184;-43
2022/09/02 03:36:37;;;;;;;13.43;6.90;;;;;;;;;;4885800;29;20214;-43
2022/09/02 03:39:04;;;;;;;9.50;6.87;;;;;;;;;;4888664;29;20176;-42
2022/09/02 03:41:30;;;;;;;12.10;7.70;;;;;;;;;;4885934;29;20767;-43
2022/09/02 03:43:56;;;;;;;11.37;7.80;;;;;;;;;;4899400;28;20629;-42
2022/09/02 03:46:23;;;;;;;11.53;7.57;;;;;;;;;;4898455;28;20191;-42
2022/09/02 03:48:50;;;;;;;11.83;8.10;;;;;;;;;;4885339;29;20223;-41
2022/09/02 03:51:16;;;;;;;11.30;7.73;;;;;;;;;;4885695;29;20630;-42
2022/09/02 03:53:42;;;;;;;10.60;8.47;;;;;;;;;;4886456;29;20219;-43
2022/09/02 03:56:13;;;;;;;11.57;8.17;;;;;;;;;;4887344;29;20653;-41
2022/09/02 03:58:39;;;;;;;17.33;9.00;;;;;;;;;;4884833;29;20924;-42
2022/09/02 04:01:06;;;;;;;14.97;7.93;;;;;;;;;;4887913;28;20558;-43
2022/09/02 04:03:32;;;;;;;14.13;8.03;;;;;;;;;;4886618;29;20286;-43
2022/09/02 04:05:58;;;;;;;17.70;9.97;;;;;;;;;;4886548;29;20311;-41
2022/09/02 04:08:25;;;;;;;18.03;9.53;;;;;;;;;;4884625;29;21463;-43
2022/09/02 04:10:51;;;;;;;15.63;9.23;;;;;;;;;;4884085;29;20282;-42
2022/09/02 04:13:18;;;;;;;16.43;8.50;;;;;;;;;;4880685;29;20187;-43
2022/09/02 04:15:46;;;;;;;13.43;8.77;;;;;;;;;;4881144;29;20216;-42
2022/09/02 04:18:13;;;;;;;21.30;9.20;;;;;;;;;;4884579;29;20299;-42
2022/09/02 04:20:40;;;;;;;16.27;9.10;;;;;;;;;;4883575;29;20176;-42
2022/09/02 04:23:06;;;;;;;14.20;9.70;;;;;;;;;;4888075;29;20184;-41
2022/09/02 04:25:33;;;;;;;15.27;9.83;;;;;;;;;;4883135;29;20784;-42
2022/09/02 04:27:59;;;;;;;11.60;8.03;;;;;;;;;;4886548;29;20169;-43
2022/09/02 04:30:25;;;;;;;10.33;7.47;;;;;;;;;;4885733;28;22582;-39
2022/09/02 04:32:52;;;;;;;14.13;7.57;;;;;;;;;;4887180;29;20488;-43
2022/09/02 04:35:18;;;;;;;8.97;7.03;;;;;;;;;;4885563;29;20416;-42
2022/09/02 04:37:46;;;;;;;10.67;7.67;;;;;;;;;;4889002;29;20236;-41
2022/09/02 04:40:12;;;;;;;12.30;7.40;;;;;;;;;;4888031;29;20467;-40
2022/09/02 04:42:38;;;;;;;9.43;7.37;;;;;;;;;;4890425;29;20231;-40
2022/09/02 04:45:05;;;;;;;8.10;6.57;;;;;;;;;;4886082;29;20188;-40
2022/09/02 04:47:31;;;;;;;11.83;6.57;;;;;;;;;;4887773;29;20672;-41
2022/09/02 04:49:57;;;;;;;12.07;6.47;;;;;;;;;;4889048;29;20310;-41
2022/09/02 04:52:24;;;;;;;10.00;6.53;;;;;;;;;;4890717;28;20705;-40
2022/09/02 04:54:50;;;;;;;8.33;5.93;;;;;;;;;;4892282;29;20574;-40
2022/09/02 04:57:16;;;;;;;9.30;6.30;;;;;;;;;;4890961;29;20598;-40
2022/09/02 04:59:42;;;;;;;8.23;6.87;;;;;;;;;;4889579;29;20731;-41
2022/09/02 05:02:09;;;;;;;8.47;6.60;;;;;;;;;;4890638;29;20236;-41
2022/09/02 05:04:35;;;;;;;10.20;6.97;;;;;;;;;;4893054;29;20184;-40
2022/09/02 05:07:02;;;;;;;8.60;6.40;;;;;;;;;;4890092;29;20629;-41
2022/09/02 05:09:29;;;;;;;7.80;6.13;;;;;;;;;;4890197;29;20195;-40
2022/09/02 05:12:03;;;;;;;10.17;6.30;;;;;;;;;;4890719;29;20483;-39
2022/09/02 05:14:29;;;;;;;9.07;5.83;;;;;;;;;;4893004;29;20541;-42
2022/09/02 05:16:55;;;;;;;9.10;6.63;;;;;;;;;;4885635;29;20275;-41
2022/09/02 05:19:22;;;;;;;9.43;7.30;;;;;;;;;;4888885;29;20767;-40
2022/09/02 05:21:49;;;;;;;9.17;6.70;;;;;;;;;;4884735;29;20747;-41
2022/09/02 05:24:16;;;;;;;6.70;5.53;;;;;;;;;;4886710;29;20223;-43
2022/09/02 05:26:43;;;;;;;8.27;6.20;;;;;;;;;;4889517;28;20212;-40
2022/09/02 05:29:10;;;;;;;7.97;5.63;;;;;;;;;;4888942;29;20187;-40
2022/09/02 05:31:37;;;;;;;10.37;5.87;;;;;;;;;;4888488;29;20203;-41
2022/09/02 05:34:03;;;;;;;6.50;5.73;;;;;;;;;;4892974;29;20183;-41
2022/09/02 05:36:31;;;;;;;7.20;5.73;;;;;;;;;;4896580;29;20196;-41
2022/09/02 05:38:57;;;;;;;8.70;5.70;;;;;;;;;;4885175;28;20192;-42
2022/09/02 05:41:24;;;;;;;7.37;5.53;;;;;;;;;;4884193;29;20235;-40
2022/09/02 05:43:55;;;;;;;11.17;6.37;;;;;;;;;;4892612;29;20645;-40
2022/09/02 05:46:23;;;;;;;8.00;6.00;;;;;;;;;;4893655;29;20172;-42
2022/09/02 05:49:05;;;;;;;10.57;6.17;;;;;;;;;;4896066;29;20527;-41
2022/09/02 05:51:31;;;;;;;8.67;6.43;;;;;;;;;;4894193;28;20180;-42
2022/09/02 05:53:59;;;;;;;9.40;5.90;;;;;;;;;;4891326;29;20268;-41
2022/09/02 05:56:26;;;;;;;7.37;5.77;;;;;;;;;;4890661;29;20291;-42
2022/09/02 05:58:52;;;;;;;6.37;4.90;;;;;;;;;;4888737;29;20592;-42
2022/09/02 06:01:19;;;;;;;8.50;5.07;;;;;;;;;;4887853;29;21507;-42
2022/09/02 06:03:45;;;;;;;6.07;5.30;;;;;;;;;;4890822;28;20180;-42
2022/09/02 06:06:11;;;;;;;6.53;5.00;;;;;;;;;;4888420;29;20191;-41
2022/09/02 06:08:38;;;;;;;7.40;5.10;;;;;;;;;;4904745;28;20759;-41
2022/09/02 06:11:06;;;;;;;8.13;5.03;;;;;;;;;;4889349;29;20828;-41
2022/09/02 06:13:34;;;;;;;10.60;5.40;;;;;;;;;;4887754;29;20757;-42
2022/09/02 06:16:00;;;;;;;10.30;5.23;;;;;;;;;;4888284;29;20302;-42
2022/09/02 06:18:27;;;;;;;7.07;5.27;;;;;;;;;;4890216;29;20534;-41
2022/09/02 06:20:53;;;;;;;7.60;5.47;;;;;;;;;;4890316;29;20685;-42
2022/09/02 06:23:19;;;;;;;8.27;5.97;;;;;;;;;;4888955;29;20729;-42
2022/09/02 06:25:46;;;;;;;8.07;5.63;;;;;;;;;;4889067;29;20190;-42
2022/09/02 06:28:13;;;;;;;11.33;6.27;;;;;;;;;;4893854;29;20172;-42
2022/09/02 06:30:40;;;;;;;9.73;6.70;;;;;;;;;;4888010;29;20211;-42
2022/09/02 06:33:06;;;;;;;12.77;6.53;;;;;;;;;;4887851;29;20518;-40
2022/09/02 06:35:36;;;;;;;9.07;6.10;;;;;;;;;;4887854;29;20761;-41
2022/09/02 06:38:02;;;;;;;8.47;6.20;;;;;;;;;;4891581;29;20180;-42
2022/09/02 06:40:29;;;;;;;9.77;6.67;;;;;;;;;;4890214;29;20767;-41
2022/09/02 06:42:55;;;;;;;7.97;5.80;;;;;;;;;;4889911;29;20844;-41
2022/09/02 06:45:23;;;;;;;9.37;5.37;;;;;;;;;;4886815;29;20314;-42
2022/09/02 06:47:49;;;;;;;8.47;5.10;;;;;;;;;;4888694;28;20610;-41
2022/09/02 06:50:15;;;;;;;8.07;5.17;;;;;;;;;;4890472;29;20696;-42
2022/09/02 06:52:42;;;;;;;9.77;5.13;;;;;;;;;;4889854;29;20215;-42
2022/09/02 06:55:09;;;;;;;8.93;5.37;;;;;;;;;;4887931;29;20200;-42
2022/09/02 06:57:35;;;;;;;9.30;5.10;;;;;;;;;;4886974;29;20582;-42
2022/09/02 07:00:03;;;;;;;7.07;4.73;;;;;;;;;;4887921;29;20759;-41
2022/09/02 07:02:29;;;;;;;7.73;4.40;;;;;;;;;;4891303;29;20215;-41
2022/09/02 07:05:13;;;;;;;9.13;4.40;;;;;;;;;;4897913;29;20259;-42
2022/09/02 07:07:41;;;;;;;5.67;4.40;;;;;;;;;;4898231;29;20195;-42
2022/09/02 07:10:08;;;;;;;7.93;4.90;;;;;;;;;;4894056;29;20664;-42
2022/09/02 07:12:35;;;;;;;6.37;4.73;;;;;;;;;;4894078;29;20344;-42
2022/09/02 07:15:01;;;;;;;11.93;4.60;;;;;;;;;;4897358;29;20314;-42
2022/09/02 07:17:27;;;;;;;5.73;3.80;;;;;;;;;;4896129;29;20649;-41
2022/09/02 07:19:56;;;;;;;6.67;4.33;;;;;;;;;;4895795;29;20665;-42
2022/09/02 07:22:22;;;;;;;8.27;4.27;;;;;;;;;;4910401;28;20296;-42
2022/09/02 07:24:48;;;;;;;4.07;3.57;;;;;;;;;;4898456;29;20192;-41
2022/09/02 07:27:14;;;;;;;6.90;4.07;;;;;;;;;;4897199;29;20176;-42
2022/09/02 07:29:42;;;;;;;4.07;3.50;;;;;;;;;;4895179;29;20708;-42
2022/09/02 07:32:09;;;;;;;8.00;3.67;;;;;;;;;;4895711;29;20188;-41
2022/09/02 07:34:35;;;;;;;6.13;3.40;;;;;;;;;;4898527;29;20310;-42
2022/09/02 07:37:01;;;;;;;5.60;3.53;;;;;;;;;;4897276;29;20488;-42
2022/09/02 07:39:27;;;;;;;9.40;3.70;;;;;;;;;;4895854;29;20180;-42
2022/09/02 07:41:54;;;;;;;6.67;4.27;;;;;;;;;;4894448;29;20179;-42
2022/09/02 07:44:20;;;;;;;4.87;3.30;;;;;;;;;;4897908;29;20188;-41
2022/09/02 07:46:46;;;;;;;6.13;4.07;;;;;;;;;;4896987;28;20366;-42
2022/09/02 07:49:14;;;;;;;8.23;4.07;;;;;;;;;;4893642;29;20508;-42
2022/09/02 07:51:41;;;;;;;6.27;3.50;;;;;;;;;;4896927;29;20187;-42
2022/09/02 07:54:09;;;;;;;5.03;3.70;;;;;;;;;;4896330;29;20180;-42
2022/09/02 07:56:35;;;;;;;6.90;3.23;;;;;;;;;;4896913;29;20515;-41
2022/09/02 07:59:01;;;;;;;8.27;3.90;;;;;;;;;;4895183;29;20447;-41
2022/09/02 08:01:28;;;;;;;5.77;3.53;;;;;;;;;;4892818;29;20227;-42
2022/09/02 08:03:54;;;;;;;9.53;3.50;;;;;;;;;;4895235;29;20185;-41
2022/09/02 08:06:22;;;;;;;7.23;3.17;;;;;;;;;;4896988;29;20251;-42
2022/09/02 08:08:48;;;;;;;5.97;3.50;;;;;;;;;;4898054;29;20169;-42
2022/09/02 08:11:14;;;;;;;5.50;3.20;;;;;;;;;;4891729;29;20179;-43
2022/09/02 08:13:41;;;;;;;7.37;3.30;;;;;;;;;;4898689;29;20203;-41
2022/09/02 08:16:07;;;;;;;5.57;2.87;;;;;;;;;;4901569;29;20200;-42
2022/09/02 08:18:33;;;;;;;6.27;3.43;;;;;;;;;;4900918;29;20180;-41
2022/09/02 08:21:00;;;;;;;8.10;3.23;;;;;;;;;;4916130;28;20173;-42
2022/09/02 08:23:26;;;;;;;6.13;2.80;;;;;;;;;;4899110;29;20323;-43
2022/09/02 08:25:52;;;;;;;6.07;2.67;;;;;;;;;;4898470;29;20176;-43
2022/09/02 08:28:18;;;;;;;4.03;2.57;;;;;;;;;;4901014;29;20513;-42
2022/09/02 08:30:44;;;;;;;4.10;3.00;;;;;;;;;;4903200;29;20760;-42
2022/09/02 08:33:10;;;;;;;5.37;3.07;;;;;;;;;;4899585;29;20184;-43
2022/09/02 08:35:37;;;;;;;8.47;3.10;;;;;;;;;;4897754;29;20660;-42
2022/09/02 08:38:03;;;;;;;5.10;2.97;;;;;;;;;;4899114;29;20171;-43
2022/09/02 08:40:37;;;;;;;5.57;2.63;;;;;;;;;;4899361;29;20188;-42
2022/09/02 08:43:05;;;;;;;5.87;2.90;;;;;;;;;;4903670;29;20240;-43
2022/09/02 08:45:37;;;;;;;6.43;3.13;;;;;;;;;;4900819;29;20617;-43
2022/09/02 08:48:11;;;;;;;5.67;2.50;;;;;;;;;;4898896;29;20185;-43
2022/09/02 08:50:39;;;;;;;5.50;2.90;;;;;;;;;;4899561;29;20285;-43
2022/09/02 08:53:14;;;;;;;4.57;2.83;;;;;;;;;;4901105;28;20295;-41
2022/09/02 08:56:01;;;;;;;5.03;2.67;;;;;;;;;;4900662;29;20641;-42
2022/09/02 08:58:28;;;;;;;4.10;2.80;;;;;;;;;;4900338;29;20977;-43
2022/09/02 09:00:58;;;;;;;4.00;2.80;;;;;;;;;;4901820;29;20367;-43
2022/09/02 09:03:26;;;;;;;10.07;2.63;;;;;;;;;;4932043;28;20632;-43
2022/09/02 09:06:06;;;;;;;4.67;2.17;;;;;;;;;;4901238;29;20227;-42
2022/09/02 09:08:35;;;;;;;2.60;1.80;;;;;;;;;;4899001;29;20190;-43
2022/09/02 09:11:01;;;;;;;5.60;2.47;;;;;;;;;;4912597;28;20184;-43
2022/09/02 09:13:27;;;;;;;4.83;2.13;;;;;;;;;;4896055;29;20176;-43
2022/09/02 09:15:56;;;;;;;4.37;1.83;;;;;;;;;;4898463;29;20615;-42
2022/09/02 09:18:44;;;;;;;4.53;1.93;;;;;;;;;;4897198;29;20632;-43
2022/09/02 09:21:10;;;;;;;3.30;1.90;;;;;;;;;;4901369;29;20203;-42
2022/09/02 09:23:38;;;;;;;3.70;1.90;;;;;;;;;;4901830;29;20195;-42
2022/09/02 09:26:05;;;;;;;2.40;1.80;;;;;;;;;;4901390;29;20372;-42
2022/09/02 09:28:31;;;;;;;3.30;1.80;;;;;;;;;;4901244;29;20587;-42
2022/09/02 09:31:00;;;;;;;2.80;1.67;;;;;;;;;;4896648;29;20267;-42
2022/09/02 09:33:26;;;;;;;3.60;2.07;;;;;;;;;;4900239;29;20724;-42
2022/09/02 09:35:53;;;;;;;4.80;2.30;;;;;;;;;;4900086;29;20440;-42
2022/09/02 09:38:30;;;;;;;4.50;2.10;;;;;;;;;;4899943;29;20206;-43
2022/09/02 09:41:16;;;;;;;2.67;2.03;;;;;;;;;;4892181;29;20207;-42
2022/09/02 09:43:43;;;;;;;4.77;2.23;;;;;;;;;;4896650;29;20187;-42
2022/09/02 09:46:21;;;;;;;4.13;2.30;;;;;;;;;;4899046;29;20251;-42
2022/09/02 09:48:50;;;;;;;4.30;2.20;;;;;;;;;;4900669;29;20867;-42
2022/09/02 09:51:16;;;;;;;5.00;2.13;;;;;;;;;;4898769;29;20500;-42
2022/09/02 09:53:43;;;;;;;4.70;2.00;;;;;;;;;;4897344;29;20522;-43
2022/09/02 09:56:15;;;;;;;3.20;2.30;;;;;;;;;;4898358;29;20203;-42
2022/09/02 09:58:41;;;;;;;2.93;1.80;;;;;;;;;;4899031;29;20172;-42
2022/09/02 10:01:23;;;;;;;2.93;1.90;;;;;;;;;;4901600;29;20539;-42
2022/09/02 10:03:57;;;;;;;3.87;2.10;;;;;;;;;;4897990;29;21485;-42
2022/09/02 10:06:32;;;;;;;2.60;1.57;;;;;;;;;;4896297;29;20728;-43
2022/09/02 10:09:00;;;;;;;3.73;1.90;;;;;;;;;;4897501;29;20687;-41
2022/09/02 10:11:29;;;;;;;3.23;1.70;;;;;;;;;;4899123;29;20180;-42
2022/09/02 10:13:58;;;;;;;3.40;2.23;;;;;;;;;;4912094;28;20184;-42
2022/09/02 10:16:24;;;;;;;4.07;1.93;;;;;;;;;;4898091;29;20204;-42
2022/09/02 10:18:52;;;;;;;5.00;2.03;;;;;;;;;;4897856;29;20235;-42
2022/09/02 10:21:27;;;;;;;3.83;1.80;;;;;;;;;;4899264;29;20239;-42
2022/09/02 10:23:54;;;;;;;2.77;1.70;;;;;;;;;;4900157;28;20780;-42
2022/09/02 10:26:20;;;;;;;2.07;1.60;;;;;;;;;;4897020;29;21076;-42
2022/09/02 10:28:52;;;;;;;3.77;1.80;;;;;;;;;;4895172;29;20452;-42
2022/09/02 10:31:18;;;;;;;4.83;1.70;;;;;;;;;;4897470;29;20192;-42
2022/09/02 10:33:44;;;;;;;3.50;2.10;;;;;;;;;;4898706;29;20192;-42
2022/09/02 10:36:29;;;;;;;3.33;2.00;;;;;;;;;;4896504;29;20961;-42
2022/09/02 10:39:03;;;;;;;3.33;1.63;;;;;;;;;;4896767;29;20358;-43
2022/09/02 10:41:30;;;;;;;2.73;1.90;;;;;;;;;;4898902;29;20977;-42
2022/09/02 10:43:59;;;;;;;3.90;1.93;;;;;;;;;;4895781;29;20668;-42
2022/09/02 10:46:25;;;;;;;3.40;1.77;;;;;;;;;;4894511;29;21055;-42
2022/09/02 10:49:04;;;;;;;2.67;1.67;;;;;;;;;;4895391;29;20283;-42
2022/09/02 10:51:49;;;;;;;2.27;1.60;;;;;;;;;;4895378;29;20770;-43
2022/09/02 10:54:34;;;;;;;1.90;1.60;;;;;;;;;;4899521;29;20180;-42
2022/09/02 10:57:10;;;;;;;4.20;1.80;;;;;;;;;;4898616;29;20550;-42
2022/09/02 11:00:12;;;;;;;3.63;1.73;;;;;;;;;;4896277;29;20195;-43
2022/09/02 11:02:41;;;;;;;4.30;1.83;;;;;;;;;;4898378;29;20184;-40
2022/09/02 11:05:16;;;;;;;2.40;1.80;;;;;;;;;;4900861;29;20211;-42
2022/09/02 11:07:46;;;;;;;2.43;1.50;;;;;;;;;;4898442;29;20186;-42
2022/09/02 11:10:17;;;;;;;3.67;1.93;;;;;;;;;;4895912;29;20180;-42
2022/09/02 11:12:54;;;;;;;2.90;1.47;;;;;;;;;;4896731;29;20207;-43
2022/09/02 11:15:38;;;;;;;2.67;1.77;;;;;;;;;;4897266;29;20199;-43
2022/09/02 11:18:12;;;;;;;2.73;1.90;;;;;;;;;;4901638;29;20183;-43
2022/09/02 11:20:38;;;;;;;3.40;2.10;;;;;;;;;;4892832;29;20242;-42
2022/09/02 11:23:04;;;;;;;2.33;1.70;;;;;;;;;;4898067;29;20184;-43
2022/09/02 11:25:34;;;;;;;2.23;1.60;;;;;;;;;;4899808;29;20450;-42
2022/09/02 11:28:00;;;;;;;3.20;2.17;;;;;;;;;;4900407;29;20219;-41
2022/09/02 11:30:31;;;;;;;1.90;1.70;;;;;;;;;;4899230;29;20227;-43
2022/09/02 11:33:29;;;;;;;2.33;1.63;;;;;;;;;;4900172;29;20183;-43
2022/09/02 11:35:57;;;;;;;3.70;1.97;;;;;;;;;;4916106;28;20263;-42
2022/09/02 11:38:44;;;;;;;3.63;2.07;;;;;;;;;;4901353;29;20195;-43
2022/09/02 11:41:13;;;;;;;2.20;1.67;;;;;;;;;;4899799;29;20172;-42
2022/09/02 11:43:39;;;;;;;2.87;1.90;;;;;;;;;;4897134;29;20323;-43
2022/09/02 11:46:15;;;;;;;4.67;2.00;;;;;;;;;;4892818;29;20180;-41
2022/09/02 11:49:01;;;;;;;3.63;2.00;;;;;;;;;;4899556;29;20360;-43
2022/09/02 11:51:46;;;;;;;4.33;2.00;;;;;;;;;;4901622;29;20176;-43
2022/09/02 11:54:14;;;;;;;3.57;2.03;;;;;;;;;;4899794;29;20183;-43
2022/09/02 11:56:51;;;;;;;3.47;2.00;;;;;;;;;;4898009;29;20204;-42
2022/09/02 11:59:43;;;;;;;3.00;1.70;;;;;;;;;;4899013;29;20995;-43
2022/09/02 12:02:11;;;;;;;2.83;1.80;;;;;;;;;;4901684;29;20216;-42
2022/09/02 12:04:37;;;;;;;4.37;2.00;;;;;;;;;;4899294;29;20176;-43
2022/09/02 12:07:06;;;;;;;3.10;1.70;;;;;;;;;;4897138;29;20176;-43
2022/09/02 12:09:44;;;;;;;3.17;1.70;;;;;;;;;;4899306;29;20995;-42
2022/09/02 12:12:30;;;;;;;3.87;1.60;;;;;;;;;;4901365;29;20168;-43
2022/09/02 12:14:56;;;;;;;2.67;1.80;;;;;;;;;;4896690;29;21145;-43
2022/09/02 12:17:37;;;;;;;2.97;1.80;;;;;;;;;;4896217;29;20200;-44
2022/09/02 12:20:05;;;;;;;3.80;1.97;;;;;;;;;;4898614;29;20179;-43
2022/09/02 12:22:32;;;;;;;2.53;1.90;;;;;;;;;;4899795;29;20176;-42
2022/09/02 12:25:02;;;;;;;3.40;1.87;;;;;;;;;;4902033;29;20785;-43
2022/09/02 12:27:28;;;;;;;3.53;1.77;;;;;;;;;;4899993;29;20176;-43
2022/09/02 12:29:55;;;;;;;4.53;1.80;;;;;;;;;;4898289;29;20173;-43
2022/09/02 12:32:39;;;;;;;2.53;1.47;;;;;;;;;;4897437;29;20997;-41
2022/09/02 12:35:10;;;;;;;2.53;1.60;;;;;;;;;;4891827;29;20215;-43
2022/09/02 12:37:50;;;;;;;3.93;1.50;;;;;;;;;;4897965;29;20200;-43
2022/09/02 12:40:19;;;;;;;4.40;1.77;;;;;;;;;;4898461;29;20271;-43
2022/09/02 12:42:46;;;;;;;5.57;1.80;;;;;;;;;;4896865;29;20184;-43
2022/09/02 12:45:23;;;;;;;3.70;1.70;;;;;;;;;;4902503;28;20523;-43
2022/09/02 12:47:49;;;;;;;3.53;1.60;;;;;;;;;;4894731;29;20671;-43
2022/09/02 12:50:19;;;;;;;2.03;1.50;;;;;;;;;;4898142;29;20196;-42
2022/09/02 12:52:47;;;;;;;2.93;1.60;;;;;;;;;;4896078;29;20195;-43
2022/09/02 12:55:26;;;;;;;2.33;1.80;;;;;;;;;;4890089;29;20509;-41
2022/09/02 12:58:05;;;;;;;1.73;1.50;;;;;;;;;;4894353;29;20430;-42
2022/09/02 13:00:50;;;;;;;2.80;1.70;;;;;;;;;;4898760;29;20870;-43
2022/09/02 13:03:22;;;;;;;2.43;1.43;;;;;;;;;;4899719;29;20419;-43
2022/09/02 13:06:04;;;;;;;2.60;1.60;;;;;;;;;;4897872;29;20481;-43
2022/09/02 13:08:33;;;;;;;2.47;1.60;;;;;;;;;;4896580;29;20192;-42
2022/09/02 13:11:09;;;;;;;2.63;1.60;;;;;;;;;;4897370;29;20553;-41
2022/09/02 13:13:47;;;;;;;3.00;1.53;;;;;;;;;;4893602;29;20202;-42
2022/09/02 13:16:13;;;;;;;2.23;1.57;;;;;;;;;;4893319;29;20547;-42
2022/09/02 13:18:55;;;;;;;2.30;1.73;;;;;;;;;;4900994;29;20176;-42
2022/09/02 13:21:40;;;;;;;2.53;1.53;;;;;;;;;;4897520;29;20176;-43
2022/09/02 13:24:15;;;;;;;1.97;1.50;;;;;;;;;;4894494;29;20773;-42
2022/09/02 13:26:59;;;;;;;2.70;1.40;;;;;;;;;;4894006;29;20337;-43
2022/09/02 13:29:35;;;;;;;2.30;1.40;;;;;;;;;;4898134;29;20240;-42
2022/09/02 13:32:12;;;;;;;6.53;1.90;;;;;;;;;;4897386;29;20518;-42
2022/09/02 13:34:42;;;;;;;6.13;2.17;;;;;;;;;;4895778;29;21009;-42
2022/09/02 13:37:28;;;;;;;3.50;1.80;;;;;;;;;;4898632;29;21057;-42
2022/09/02 13:39:54;;;;;;;3.17;1.73;;;;;;;;;;4898665;29;20561;-42
2022/09/02 13:42:28;;;;;;;3.67;1.70;;;;;;;;;;4903053;29;20311;-43
2022/09/02 13:45:09;;;;;;;4.53;1.60;;;;;;;;;;4899084;29;20175;-43
2022/09/02 13:47:36;;;;;;;6.67;2.00;;;;;;;;;;4901054;29;20192;-43
2022/09/02 13:50:05;;;;;;;2.33;1.30;;;;;;;;;;4899984;29;20579;-43
2022/09/02 13:52:31;;;;;;;2.87;1.70;;;;;;;;;;4898426;29;20800;-43
2022/09/02 13:54:58;;;;;;;2.33;1.60;;;;;;;;;;4894540;29;20181;-43
2022/09/02 13:57:26;;;;;;;2.10;1.43;;;;;;;;;;4892458;29;20504;-42
2022/09/02 13:59:53;;;;;;;2.40;1.30;;;;;;;;;;4900472;29;20660;-43
2022/09/02 14:02:25;;;;;;;2.57;1.73;;;;;;;;;;4897422;29;20294;-43
2022/09/02 14:04:53;;;;;;;2.53;1.60;;;;;;;;;;4896282;29;20678;-42
2022/09/02 14:07:24;;;;;;;3.53;1.60;;;;;;;;;;4894974;29;20748;-42
2022/09/02 14:09:50;;;;;;;3.77;1.67;;;;;;;;;;4891328;28;20177;-42
2022/09/02 14:12:16;;;;;;;1.73;1.33;;;;;;;;;;4883149;29;20574;-43
2022/09/02 14:14:42;;;;;;;3.07;1.67;;;;;;;;;;4888752;29;20606;-43
2022/09/02 14:17:20;;;;;;;2.83;1.70;;;;;;;;;;4891010;28;20636;-42
2022/09/02 14:19:47;;;;;;;2.80;1.63;;;;;;;;;;4890379;29;20291;-43
2022/09/02 14:22:26;;;;;;;5.33;1.60;;;;;;;;;;4888439;29;20387;-43
2022/09/02 14:24:53;;;;;;;6.43;1.60;;;;;;;;;;4887035;29;20195;-42
2022/09/02 14:27:20;;;;;;;2.37;1.70;;;;;;;;;;4885742;29;20257;-43
2022/09/02 14:29:48;;;;;;;4.13;1.60;;;;;;;;;;4888120;29;20173;-43
2022/09/02 14:32:20;;;;;;;3.47;1.50;;;;;;;;;;4887765;29;20625;-43
2022/09/02 14:34:47;;;;;;;6.37;1.57;;;;;;;;;;4886558;29;20203;-43
2022/09/02 14:37:33;;;;;;;3.27;1.80;;;;;;;;;;4887604;29;20553;-42
2022/09/02 14:39:59;;;;;;;5.60;1.90;;;;;;;;;;4891473;29;20183;-43
2022/09/02 14:42:26;;;;;;;3.70;1.73;;;;;;;;;;4893336;29;20587;-43
2022/09/02 14:44:53;;;;;;;2.47;1.67;;;;;;;;;;4897815;29;20971;-43
2022/09/02 14:47:20;;;;;;;4.23;1.97;;;;;;;;;;4898215;29;20582;-43
2022/09/02 14:49:51;;;;;;;4.40;1.83;;;;;;;;;;4900935;29;20271;-43